Dania, FL

10:05 AM EDT on August 24, 2016 (GMT -0400)
Fort Lauderdale-Hollywood International | | Change Station

Elev 10 ft 26.07 °N, 80.15 °W | Updated 12 minutes ago

Mostly Cloudy
Mostly Cloudy
87 °F
Feels Like 99 °F
N
9
Wind Variable Wind from ENE

Today
High -- | Low -- °F
--% Chance of Precip.
Yesterday
High -- | Low -- °F
Precip. -- in
Pressure 30.06 in
Visibility 10.0 miles
Clouds Scattered Clouds 2500 ft
Scattered Clouds 5000 ft
Scattered Clouds 12000 ft
Mostly Cloudy 25000 ft
Heat Index 99 °F
Dew Point 77 °F
Humidity 72%
Rainfall 0.00 in
Snow Depth Not available.
6:57 AM 7:47 PM
Waning Gibbous, 56% visible
METAR KFLL 241353Z 06008KT 10SM SCT025 SCT050 SCT120 BKN250 31/25 A3006 RMK AO2 SLP180 T03060250
Pressure 30.06 in
Visibility 10.0 miles
Clouds Scattered Clouds 2500 ft
Scattered Clouds 5000 ft
Scattered Clouds 12000 ft
Mostly Cloudy 25000 ft
Heat Index 99 °F
Dew Point 77 °F
Humidity 72%
Rainfall 0.00 in
Snow Depth Not available.
6:57 AM 7:47 PM
Waning Gibbous, 56% visible
METAR KFLL 241353Z 06008KT 10SM SCT025 SCT050 SCT120 BKN250 31/25 A3006 RMK AO2 SLP180 T03060250

10-Day Weather Forecast

Almanac

Astronomy

Aug. 24, 2016 Rise Set
Actual Time
Civil Twilight
Nautical Twilight
Astronomical Twilight
Moon
Length of Visible Light
Length of Day
Tomorrow will be .
, % of the Moon is Illuminated

Today's Extremes

State Highs State Lows

Community

WunderPhotos

Upload Photos

1,934,605 photos uploaded!

WunderBlog® & News

Nearby

Air Quality

  Air Quality AQ Index Pollutant
Not available.

Snow Depth

Station Depth Elevation

Earthquake Activity

City Distance Mag. Time & Date
Minimum magnitude displayed is 2.5.

Coastal Water Temperatures

Place Temperature

Stations

Nearby Weather Stations

Station Location Temp. Windchill Dew Point Humidity Wind Precip. Elev Updated Type
                   

Watches & Warnings

There are currently no watches in effect.